createdAt,value
2022-12-16T00:02:23.141Z,4.40
2022-12-16T00:05:07.943Z,4.76
2022-12-16T00:07:51.776Z,4.93
2022-12-16T00:10:53.122Z,4.68
2022-12-16T00:13:41.544Z,4.82
2022-12-16T00:16:25.362Z,4.66
2022-12-16T00:19:09.287Z,4.75
2022-12-16T00:21:52.991Z,4.80
2022-12-16T00:24:38.718Z,4.83
2022-12-16T00:27:22.480Z,5.18
2022-12-16T00:30:09.016Z,5.31
2022-12-16T00:32:52.735Z,5.28
2022-12-16T00:35:40.522Z,5.20
2022-12-16T00:38:28.278Z,5.33
2022-12-16T00:41:12.060Z,5.48
2022-12-16T00:43:55.760Z,5.14
2022-12-16T00:46:41.080Z,5.49
2022-12-16T00:49:24.871Z,5.85
2022-12-16T00:52:08.656Z,5.95
2022-12-16T00:54:52.457Z,6.25
2022-12-16T00:57:36.226Z,6.43
2022-12-16T01:00:20.532Z,6.69
2022-12-16T01:03:05.952Z,6.94
2022-12-16T01:05:50.070Z,7.09
2022-12-16T01:08:34.314Z,7.28
2022-12-16T01:11:18.972Z,7.57
2022-12-16T01:14:02.690Z,7.67
2022-12-16T01:16:46.417Z,7.90
2022-12-16T01:19:31.778Z,8.01
2022-12-16T01:22:15.573Z,8.09
2022-12-16T01:24:59.476Z,8.22
2022-12-16T01:27:43.157Z,8.37
2022-12-16T01:30:26.999Z,8.45
2022-12-16T01:33:11.950Z,8.20
2022-12-16T01:36:02.095Z,8.53
2022-12-16T01:38:46.194Z,8.33
2022-12-16T01:41:30.081Z,8.38
2022-12-16T01:44:16.129Z,8.28
2022-12-16T01:47:04.326Z,8.35
2022-12-16T01:49:53.719Z,8.19
2022-12-16T01:52:46.259Z,7.80
2022-12-16T01:55:33.746Z,8.18
2022-12-16T01:58:22.455Z,8.27
2022-12-16T02:01:06.856Z,8.32
2022-12-16T02:03:51.757Z,8.21
2022-12-16T02:06:36.201Z,8.45
2022-12-16T02:09:21.904Z,8.47
2022-12-16T02:12:25.580Z,8.59
2022-12-16T02:15:22.568Z,8.38
2022-12-16T02:18:17.717Z,8.59
2022-12-16T02:21:29.233Z,8.60
2022-12-16T02:24:45.155Z,8.83
2022-12-16T02:27:58.253Z,8.77
2022-12-16T02:30:57.920Z,8.68
2022-12-16T02:33:50.620Z,8.75
2022-12-16T02:36:47.024Z,8.85
2022-12-16T02:39:38.677Z,8.64
2022-12-16T02:42:31.020Z,8.65
2022-12-16T02:45:18.353Z,8.65
2022-12-16T02:48:03.533Z,8.93
2022-12-16T02:50:51.227Z,9.11
2022-12-16T02:53:40.225Z,8.82
2022-12-16T02:56:32.444Z,9.08
2022-12-16T02:59:23.494Z,9.06
2022-12-16T03:02:14.326Z,9.25
2022-12-16T03:05:07.601Z,9.24
2022-12-16T03:07:53.785Z,9.35
2022-12-16T03:10:42.566Z,9.40
2022-12-16T03:13:29.130Z,9.26
2022-12-16T03:16:17.703Z,9.54
2022-12-16T03:19:06.866Z,9.52
2022-12-16T03:21:57.026Z,9.51
2022-12-16T03:24:41.957Z,9.44
2022-12-16T03:27:30.522Z,9.65
2022-12-16T03:30:18.650Z,9.57
2022-12-16T03:33:05.517Z,9.53
2022-12-16T03:35:53.282Z,9.44
2022-12-16T03:38:40.208Z,9.70
2022-12-16T03:41:24.882Z,9.67
2022-12-16T03:44:09.473Z,9.61
2022-12-16T03:46:53.828Z,9.82
2022-12-16T03:49:37.701Z,9.71
2022-12-16T03:52:21.562Z,9.60
2022-12-16T03:55:07.116Z,9.77
2022-12-16T03:57:51.060Z,9.71
2022-12-16T04:00:34.918Z,9.66
2022-12-16T04:03:18.915Z,9.68
2022-12-16T04:06:03.006Z,9.63
2022-12-16T04:08:46.973Z,9.69
2022-12-16T04:12:03.942Z,9.85
2022-12-16T04:15:04.257Z,9.93
2022-12-16T04:18:05.482Z,9.94
2022-12-16T04:21:10.885Z,10.12
2022-12-16T04:24:15.898Z,10.19
2022-12-16T04:27:20.697Z,10.08
2022-12-16T04:30:20.240Z,9.94
2022-12-16T04:33:24.511Z,10.04
2022-12-16T04:36:26.396Z,10.06
2022-12-16T04:39:27.742Z,10.12
2022-12-16T04:42:30.563Z,10.24
2022-12-16T04:45:32.185Z,10.08
2022-12-16T04:48:33.542Z,10.18
2022-12-16T04:51:34.523Z,10.27
2022-12-16T04:54:35.623Z,10.35
2022-12-16T04:57:38.237Z,10.30
2022-12-16T05:00:39.917Z,10.39
2022-12-16T05:03:41.663Z,10.48
2022-12-16T05:06:43.220Z,10.14
2022-12-16T05:09:44.751Z,10.02
2022-12-16T05:12:47.281Z,10.37
2022-12-16T05:15:48.315Z,10.57
2022-12-16T05:18:49.277Z,10.25
2022-12-16T05:21:50.725Z,10.20
2022-12-16T05:24:53.161Z,10.24
2022-12-16T05:27:56.962Z,10.40
2022-12-16T05:30:58.480Z,10.71
2022-12-16T05:34:00.150Z,10.83
2022-12-16T05:37:01.651Z,10.81
2022-12-16T05:40:03.230Z,10.67
2022-12-16T05:43:10.914Z,10.72
2022-12-16T05:46:16.723Z,10.69
2022-12-16T05:49:18.550Z,10.78
2022-12-16T05:52:19.872Z,10.92
2022-12-16T05:55:21.464Z,10.56
2022-12-16T05:58:24.157Z,10.83
2022-12-16T06:01:25.607Z,10.47
2022-12-16T06:04:27.347Z,10.60
2022-12-16T06:07:28.947Z,10.80
2022-12-16T06:10:30.504Z,10.80
2022-12-16T06:13:33.492Z,10.82
2022-12-16T06:16:35.631Z,10.55
2022-12-16T06:19:37.003Z,10.90
2022-12-16T06:22:41.881Z,10.55
2022-12-16T06:25:48.310Z,10.55
2022-12-16T06:28:50.994Z,10.80
2022-12-16T06:31:52.233Z,11.01
2022-12-16T06:34:53.394Z,10.89
2022-12-16T06:37:53.623Z,10.81
2022-12-16T06:40:55.119Z,11.02
2022-12-16T06:43:57.779Z,10.86
2022-12-16T06:46:59.091Z,11.02
2022-12-16T06:50:00.541Z,10.86
2022-12-16T06:53:01.897Z,11.21
2022-12-16T06:56:03.324Z,11.01
2022-12-16T06:59:06.060Z,10.84
2022-12-16T07:02:07.088Z,10.92
2022-12-16T07:05:08.688Z,11.07
2022-12-16T07:08:10.235Z,10.93
2022-12-16T07:11:16.527Z,11.19
2022-12-16T07:14:19.796Z,11.26
2022-12-16T07:17:21.004Z,11.04
2022-12-16T07:20:22.888Z,11.24
2022-12-16T07:23:24.302Z,11.31
2022-12-16T07:26:25.688Z,11.36
2022-12-16T07:29:28.095Z,11.45
2022-12-16T07:32:29.180Z,11.50
2022-12-16T07:35:30.150Z,11.22
2022-12-16T07:38:31.553Z,11.51
2022-12-16T07:41:32.823Z,11.60
2022-12-16T07:44:35.455Z,11.57
2022-12-16T07:47:36.899Z,11.43
2022-12-16T07:50:38.472Z,11.64
2022-12-16T07:53:40.429Z,11.52
2022-12-16T07:56:42.013Z,11.45
2022-12-16T07:59:44.594Z,11.36
2022-12-16T08:02:46.004Z,11.76
2022-12-16T08:05:47.617Z,11.58
2022-12-16T08:08:48.591Z,11.47
2022-12-16T08:11:49.864Z,11.77
2022-12-16T08:14:58.148Z,11.73
2022-12-16T08:18:01.458Z,11.77
2022-12-16T08:21:02.896Z,11.84
2022-12-16T08:24:04.302Z,11.83
2022-12-16T08:27:05.736Z,11.74
2022-12-16T08:30:08.113Z,11.98
2022-12-16T08:33:18.540Z,12.07
2022-12-16T08:36:20.437Z,11.81
2022-12-16T08:39:21.895Z,12.03
2022-12-16T08:42:23.207Z,11.99
2022-12-16T08:45:26.381Z,12.03
2022-12-16T08:48:27.861Z,12.20
2022-12-16T08:51:29.117Z,12.52
2022-12-16T08:54:30.507Z,12.37
2022-12-16T08:57:31.986Z,12.67
2022-12-16T09:00:35.307Z,12.45
2022-12-16T09:03:36.551Z,12.58
2022-12-16T09:06:40.672Z,12.83
2022-12-16T09:09:42.375Z,12.84
2022-12-16T09:12:43.789Z,13.15
2022-12-16T09:15:46.302Z,13.02
2022-12-16T09:18:47.670Z,12.95
2022-12-16T09:21:49.101Z,13.05
2022-12-16T09:24:50.489Z,13.31
2022-12-16T09:27:53.424Z,13.73
2022-12-16T09:30:55.853Z,13.75
2022-12-16T09:33:57.223Z,14.25
2022-12-16T09:36:58.418Z,14.47
2022-12-16T09:40:00.072Z,14.35
2022-12-16T09:43:09.671Z,14.16
2022-12-16T09:46:19.010Z,14.80
2022-12-16T09:49:32.568Z,14.93
2022-12-16T09:52:38.146Z,14.79
2022-12-16T09:55:44.515Z,14.72
2022-12-16T09:58:49.359Z,14.80
2022-12-16T10:01:56.090Z,15.39
2022-12-16T10:04:57.614Z,15.54
2022-12-16T10:08:05.584Z,15.76
2022-12-16T10:11:16.573Z,15.44
2022-12-16T10:14:23.644Z,15.76
2022-12-16T10:17:31.408Z,15.83
2022-12-16T10:20:43.335Z,15.42
2022-12-16T10:23:50.365Z,16.09
2022-12-16T10:27:01.058Z,16.33
2022-12-16T10:30:05.205Z,16.11
2022-12-16T10:33:09.369Z,16.36
2022-12-16T10:36:11.719Z,16.62
2022-12-16T10:39:16.595Z,16.51
2022-12-16T10:42:21.089Z,16.71
2022-12-16T10:45:23.494Z,16.20
2022-12-16T10:48:28.646Z,16.73
2022-12-16T10:51:33.002Z,16.93
2022-12-16T10:54:46.577Z,16.39
2022-12-16T10:57:59.567Z,17.18
2022-12-16T11:01:04.055Z,17.29
2022-12-16T11:04:06.818Z,17.56
2022-12-16T11:07:08.161Z,16.99
2022-12-16T11:10:10.530Z,17.09
2022-12-16T11:13:26.006Z,17.55
2022-12-16T11:16:31.049Z,17.50
2022-12-16T11:19:40.987Z,17.62
2022-12-16T11:22:42.841Z,17.34
2022-12-16T11:25:44.211Z,17.04
2022-12-16T11:28:45.662Z,16.96
2022-12-16T11:31:47.239Z,17.04
2022-12-16T11:34:50.931Z,17.06
2022-12-16T11:37:53.793Z,17.16
2022-12-16T11:40:56.744Z,17.01
2022-12-16T11:44:01.331Z,17.35
2022-12-16T11:47:02.937Z,17.34
2022-12-16T11:50:05.307Z,17.28
2022-12-16T11:53:14.588Z,17.14
2022-12-16T11:56:16.611Z,17.31
2022-12-16T11:59:22.418Z,16.89
2022-12-16T12:02:31.867Z,17.13
2022-12-16T12:05:34.960Z,17.18
2022-12-16T12:08:46.283Z,17.12
2022-12-16T12:11:50.393Z,17.38
2022-12-16T12:14:58.071Z,17.37
2022-12-16T12:18:06.648Z,16.93
2022-12-16T12:21:18.767Z,17.33
2022-12-16T12:24:28.059Z,17.46
2022-12-16T12:27:40.407Z,17.49
2022-12-16T12:30:42.742Z,17.40
2022-12-16T12:33:56.166Z,17.56
2022-12-16T12:37:07.305Z,17.56
2022-12-16T12:40:16.383Z,17.65
2022-12-16T12:43:19.761Z,17.60
2022-12-16T12:46:28.852Z,17.75
2022-12-16T12:49:38.443Z,17.47
2022-12-16T12:52:55.648Z,17.81
2022-12-16T12:56:02.010Z,17.67
2022-12-16T12:59:05.246Z,17.68
2022-12-16T13:02:09.350Z,17.79
2022-12-16T13:05:11.325Z,17.68
2022-12-16T13:08:13.688Z,17.84
2022-12-16T13:11:34.984Z,17.76
2022-12-16T13:15:20.791Z,17.84
2022-12-16T13:18:39.351Z,17.82
2022-12-16T13:22:03.242Z,17.83
2022-12-16T13:25:09.326Z,17.45
2022-12-16T13:28:15.217Z,17.75
2022-12-16T13:31:25.897Z,17.63
2022-12-16T13:34:46.054Z,17.64
2022-12-16T13:37:47.530Z,17.59
2022-12-16T13:41:07.631Z,17.57
2022-12-16T13:44:10.976Z,17.52
2022-12-16T13:47:13.605Z,17.63
2022-12-16T13:50:26.537Z,17.40
2022-12-16T13:53:30.267Z,17.42
2022-12-16T13:56:34.286Z,17.30
2022-12-16T13:59:39.443Z,17.18
2022-12-16T14:02:49.824Z,17.16
2022-12-16T14:05:56.000Z,17.17
2022-12-16T14:09:01.102Z,16.97
2022-12-16T14:12:08.650Z,16.91
2022-12-16T14:15:16.236Z,16.83
2022-12-16T14:18:24.797Z,16.66
2022-12-16T14:21:39.625Z,16.47
2022-12-16T14:24:44.484Z,16.46
2022-12-16T14:28:05.979Z,16.34
2022-12-16T14:31:07.365Z,16.25
2022-12-16T14:34:11.969Z,15.96
2022-12-16T14:37:13.404Z,15.99
2022-12-16T14:40:14.713Z,15.87
2022-12-16T14:43:17.111Z,15.55
2022-12-16T14:46:19.014Z,15.77
2022-12-16T14:49:25.933Z,15.59
2022-12-16T14:52:46.349Z,15.45
2022-12-16T14:55:50.173Z,15.47
2022-12-16T14:58:52.562Z,15.36
2022-12-16T15:01:54.161Z,15.39
2022-12-16T15:05:10.237Z,15.29
2022-12-16T15:08:11.607Z,15.33
2022-12-16T15:11:13.264Z,15.27
2022-12-16T15:14:19.041Z,15.24
2022-12-16T15:17:20.657Z,15.16
2022-12-16T15:20:22.820Z,14.99
2022-12-16T15:23:34.959Z,15.01
2022-12-16T15:26:37.733Z,14.83
2022-12-16T15:29:53.184Z,14.80
2022-12-16T15:32:54.719Z,14.72
2022-12-16T15:35:57.803Z,14.64
2022-12-16T15:38:59.687Z,14.44
2022-12-16T15:42:20.513Z,14.37
2022-12-16T15:45:24.038Z,14.40
2022-12-16T15:48:31.592Z,14.46
2022-12-16T15:51:47.938Z,14.41
2022-12-16T15:54:49.471Z,14.36
2022-12-16T15:57:52.499Z,14.28
2022-12-16T16:00:54.892Z,14.33
2022-12-16T16:03:57.217Z,14.31
2022-12-16T16:07:04.746Z,14.21
2022-12-16T16:10:06.367Z,14.24
2022-12-16T16:13:03.973Z,14.14
2022-12-16T16:16:06.693Z,14.22
2022-12-16T16:19:08.132Z,14.10
2022-12-16T16:22:09.398Z,13.86
2022-12-16T16:25:10.650Z,13.64
2022-12-16T16:28:11.729Z,13.86
2022-12-16T16:31:14.431Z,13.79
2022-12-16T16:34:16.055Z,13.80
2022-12-16T16:37:17.490Z,13.50
2022-12-16T16:40:19.478Z,13.41
2022-12-16T16:43:20.258Z,13.31
2022-12-16T16:46:33.092Z,13.57
2022-12-16T16:49:40.683Z,13.30
2022-12-16T16:52:44.081Z,13.49
2022-12-16T16:55:45.180Z,13.53
2022-12-16T16:58:50.309Z,13.47
2022-12-16T17:01:52.937Z,13.50
2022-12-16T17:04:53.936Z,13.39
2022-12-16T17:07:55.535Z,13.15
2022-12-16T17:10:57.047Z,13.20
2022-12-16T17:13:57.982Z,13.26
2022-12-16T17:17:00.483Z,13.22
2022-12-16T17:20:01.618Z,13.28
2022-12-16T17:23:05.903Z,13.23
2022-12-16T17:26:07.372Z,13.30
2022-12-16T17:29:10.463Z,13.50
2022-12-16T17:32:12.917Z,13.14
2022-12-16T17:35:14.448Z,13.17
2022-12-16T17:38:15.553Z,13.13
2022-12-16T17:41:16.958Z,13.17
2022-12-16T17:44:29.949Z,13.27
2022-12-16T17:47:32.845Z,12.85
2022-12-16T17:50:34.260Z,13.10
2022-12-16T17:53:36.133Z,13.07
2022-12-16T17:56:37.797Z,12.88
2022-12-16T17:59:39.232Z,12.99
2022-12-16T18:02:41.689Z,13.04
2022-12-16T18:05:44.878Z,13.05
2022-12-16T18:08:46.443Z,12.83
2022-12-16T18:11:47.263Z,12.77
2022-12-16T18:14:48.766Z,12.64
2022-12-16T18:17:51.538Z,12.83
2022-12-16T18:20:52.896Z,12.92
2022-12-16T18:23:54.435Z,12.83
2022-12-16T18:26:55.755Z,12.89
2022-12-16T18:29:57.031Z,12.71
2022-12-16T18:32:59.573Z,12.89
2022-12-16T18:36:01.067Z,12.52
2022-12-16T18:39:02.480Z,12.68
2022-12-16T18:42:05.284Z,12.90
2022-12-16T18:45:07.764Z,12.78
2022-12-16T18:48:10.453Z,12.74
2022-12-16T18:51:12.287Z,12.89
2022-12-16T18:54:13.126Z,12.89
2022-12-16T18:57:14.480Z,12.58
2022-12-16T19:00:15.376Z,12.69
2022-12-16T19:03:18.009Z,12.74
2022-12-16T19:06:19.369Z,12.73
2022-12-16T19:09:20.679Z,12.84
2022-12-16T19:12:21.469Z,12.87
2022-12-16T19:15:22.749Z,12.78
2022-12-16T19:18:25.252Z,12.70
2022-12-16T19:21:27.582Z,12.47
2022-12-16T19:24:28.895Z,12.57
2022-12-16T19:27:29.741Z,12.47
2022-12-16T19:30:30.996Z,12.39
2022-12-16T19:33:33.545Z,12.94
2022-12-16T19:36:34.574Z,12.43
2022-12-16T19:39:36.156Z,12.62
2022-12-16T19:42:37.553Z,12.66
2022-12-16T19:45:38.978Z,12.88
2022-12-16T19:48:41.461Z,12.81
2022-12-16T19:51:43.186Z,12.43
2022-12-16T19:54:58.682Z,11.69
2022-12-16T19:57:59.763Z,12.66
2022-12-16T20:01:00.827Z,12.51
2022-12-16T20:04:03.284Z,12.54
2022-12-16T20:07:04.764Z,12.64
2022-12-16T20:10:05.593Z,12.66
2022-12-16T20:13:06.384Z,12.63
2022-12-16T20:16:07.629Z,12.38
2022-12-16T20:19:10.096Z,12.64
2022-12-16T20:22:14.535Z,12.70
2022-12-16T20:25:19.977Z,12.73
2022-12-16T20:31:42.730Z,12.89
2022-12-16T20:34:45.010Z,12.85
2022-12-16T20:37:56.184Z,12.60
2022-12-16T20:40:56.404Z,12.67
2022-12-16T20:43:57.763Z,12.85
2022-12-16T20:46:59.223Z,12.88
2022-12-16T20:50:01.824Z,12.21
2022-12-16T20:53:04.873Z,12.34
2022-12-16T20:56:06.232Z,12.45
2022-12-16T20:59:07.800Z,12.79
2022-12-16T21:02:30.345Z,12.87
2022-12-16T21:05:32.707Z,12.86
2022-12-16T21:08:33.657Z,12.86
2022-12-16T21:11:35.336Z,12.74
2022-12-16T21:14:36.616Z,12.68
2022-12-16T21:14:42.429Z,12.85
2022-12-16T21:17:38.040Z,12.71
2022-12-16T21:20:40.573Z,12.65
2022-12-16T21:23:42.739Z,12.54
2022-12-16T21:26:44.220Z,12.24
2022-12-16T21:29:45.136Z,11.57
2022-12-16T21:32:46.548Z,12.60
2022-12-16T21:35:49.030Z,12.70
2022-12-16T21:38:50.311Z,12.46
2022-12-16T21:41:51.641Z,12.79
2022-12-16T21:44:53.144Z,12.74
2022-12-16T21:47:57.937Z,12.90
2022-12-16T21:51:00.522Z,12.98
2022-12-16T21:54:08.270Z,12.83
2022-12-16T21:57:11.554Z,12.84
2022-12-16T22:00:12.954Z,12.67
2022-12-16T22:03:14.488Z,11.98
2022-12-16T22:06:18.251Z,12.25
2022-12-16T22:09:19.209Z,12.26
2022-12-16T22:12:20.545Z,12.32
2022-12-16T22:15:21.966Z,12.14
2022-12-16T22:18:23.413Z,12.23
2022-12-16T22:21:26.054Z,12.27
2022-12-16T22:24:26.657Z,12.45
2022-12-16T22:27:27.937Z,12.48
2022-12-16T22:30:30.100Z,11.85
2022-12-16T22:33:31.533Z,11.95
2022-12-16T22:36:34.219Z,12.41
2022-12-16T22:39:38.799Z,12.28
2022-12-16T22:42:42.940Z,12.36
2022-12-16T22:45:43.964Z,12.42
2022-12-16T22:48:45.547Z,12.18
2022-12-16T22:51:48.178Z,12.19
2022-12-16T22:54:49.317Z,12.27
2022-12-16T22:57:53.391Z,12.30
2022-12-16T23:00:56.404Z,12.41
2022-12-16T23:03:58.028Z,12.14
2022-12-16T23:07:00.421Z,12.31
2022-12-16T23:10:01.771Z,12.63
2022-12-16T23:13:04.194Z,12.65
2022-12-16T23:16:05.901Z,12.63
2022-12-16T23:19:06.770Z,12.58
2022-12-16T23:22:09.487Z,12.56
2022-12-16T23:25:11.293Z,12.66
2022-12-16T23:28:12.562Z,12.67
2022-12-16T23:31:14.508Z,12.73
2022-12-16T23:34:15.840Z,12.57
2022-12-16T23:37:18.336Z,12.46
2022-12-16T23:40:19.848Z,12.76
2022-12-16T23:43:21.043Z,12.88
2022-12-16T23:46:22.514Z,12.85
2022-12-16T23:49:24.024Z,12.78
2022-12-16T23:52:26.747Z,12.86
2022-12-16T23:55:28.196Z,12.56
2022-12-16T23:58:29.696Z,12.45
